sensor_id;sensor_type;location;lat;lon;timestamp;pressure;altitude;pressure_sealevel;temperature;humidity
59417;BME280;45222;52.458;20.914;2024-01-16T00:00:02;98566.72;;;-2.83;76.52
59417;BME280;45222;52.458;20.914;2024-01-16T00:03:51;98581.19;;;-2.85;76.14
59417;BME280;45222;52.458;20.914;2024-01-16T00:07:40;98586.42;;;-2.86;76.14
59417;BME280;45222;52.458;20.914;2024-01-16T00:11:28;98587.05;;;-2.82;75.75
59417;BME280;45222;52.458;20.914;2024-01-16T00:15:16;98601.70;;;-2.85;75.38
59417;BME280;45222;52.458;20.914;2024-01-16T00:19:05;98603.10;;;-2.85;75.52
59417;BME280;45222;52.458;20.914;2024-01-16T00:22:53;98608.38;;;-2.87;74.77
59417;BME280;45222;52.458;20.914;2024-01-16T00:26:41;98624.11;;;-2.90;73.56
59417;BME280;45222;52.458;20.914;2024-01-16T00:30:29;98629.20;;;-2.93;73.96
59417;BME280;45222;52.458;20.914;2024-01-16T00:34:17;98638.47;;;-2.95;73.96
59417;BME280;45222;52.458;20.914;2024-01-16T00:38:05;98641.64;;;-2.97;74.19
59417;BME280;45222;52.458;20.914;2024-01-16T00:41:55;98640.20;;;-2.95;73.98
59417;BME280;45222;52.458;20.914;2024-01-16T00:45:43;98645.50;;;-2.99;73.57
59417;BME280;45222;52.458;20.914;2024-01-16T00:49:31;98653.88;;;-3.00;73.72
59417;BME280;45222;52.458;20.914;2024-01-16T00:53:19;98659.36;;;-3.04;74.06
59417;BME280;45222;52.458;20.914;2024-01-16T00:57:07;98674.38;;;-3.07;74.84
59417;BME280;45222;52.458;20.914;2024-01-16T01:00:55;98672.98;;;-3.08;75.11
59417;BME280;45222;52.458;20.914;2024-01-16T01:04:43;98672.67;;;-3.09;75.15
59417;BME280;45222;52.458;20.914;2024-01-16T03:13:37;98924.44;;;-4.65;70.76
59417;BME280;45222;52.458;20.914;2024-01-16T03:17:26;98927.30;;;-4.74;70.82
59417;BME280;45222;52.458;20.914;2024-01-16T03:21:14;98927.67;;;-4.76;71.29
59417;BME280;45222;52.458;20.914;2024-01-16T03:25:03;98926.13;;;-4.78;71.44
59417;BME280;45222;52.458;20.914;2024-01-16T03:28:51;98931.52;;;-4.81;71.33
59417;BME280;45222;52.458;20.914;2024-01-16T03:32:39;98942.68;;;-4.86;70.86
59417;BME280;45222;52.458;20.914;2024-01-16T03:36:27;98947.23;;;-4.91;69.94
59417;BME280;45222;52.458;20.914;2024-01-16T03:40:15;98945.73;;;-4.99;70.10
59417;BME280;45222;52.458;20.914;2024-01-16T03:44:04;98955.69;;;-5.07;70.21
59417;BME280;45222;52.458;20.914;2024-01-16T03:47:52;98962.69;;;-5.16;69.88
59417;BME280;45222;52.458;20.914;2024-01-16T03:51:40;98970.88;;;-5.22;70.04
59417;BME280;45222;52.458;20.914;2024-01-16T03:55:32;98980.30;;;-5.32;70.01
59417;BME280;45222;52.458;20.914;2024-01-16T03:59:21;98991.42;;;-5.37;70.00
59417;BME280;45222;52.458;20.914;2024-01-16T04:03:09;98995.42;;;-5.39;70.29
59417;BME280;45222;52.458;20.914;2024-01-16T04:06:58;99001.14;;;-5.40;70.44
59417;BME280;45222;52.458;20.914;2024-01-16T04:10:46;99008.41;;;-5.40;70.28
59417;BME280;45222;52.458;20.914;2024-01-16T04:14:34;99015.02;;;-5.44;69.99
59417;BME280;45222;52.458;20.914;2024-01-16T04:18:23;99016.27;;;-5.50;70.08
59417;BME280;45222;52.458;20.914;2024-01-16T04:22:11;99024.80;;;-5.57;69.83
59417;BME280;45222;52.458;20.914;2024-01-16T04:26:00;99023.59;;;-5.60;70.12
59417;BME280;45222;52.458;20.914;2024-01-16T04:29:48;99026.05;;;-5.64;70.43
59417;BME280;45222;52.458;20.914;2024-01-16T04:33:36;99029.50;;;-5.65;70.50
59417;BME280;45222;52.458;20.914;2024-01-16T04:37:24;99036.63;;;-5.68;70.46
59417;BME280;45222;52.458;20.914;2024-01-16T04:41:12;99044.78;;;-5.72;70.32
59417;BME280;45222;52.458;20.914;2024-01-16T04:45:01;99045.66;;;-5.78;70.47
59417;BME280;45222;52.458;20.914;2024-01-16T04:48:49;99064.04;;;-5.84;70.58
59417;BME280;45222;52.458;20.914;2024-01-16T04:52:37;99065.78;;;-5.88;70.49
59417;BME280;45222;52.458;20.914;2024-01-16T04:56:25;99069.79;;;-5.92;70.73
59417;BME280;45222;52.458;20.914;2024-01-16T05:00:17;99074.11;;;-5.94;71.06
59417;BME280;45222;52.458;20.914;2024-01-16T05:04:05;99077.59;;;-5.97;71.10
59417;BME280;45222;52.458;20.914;2024-01-16T05:07:54;99092.32;;;-6.01;71.24
59417;BME280;45222;52.458;20.914;2024-01-16T05:11:43;99101.00;;;-6.07;71.33
59417;BME280;45222;52.458;20.914;2024-01-16T05:15:31;99098.93;;;-6.13;71.40
59417;BME280;45222;52.458;20.914;2024-01-16T05:19:19;99104.13;;;-6.17;71.28
59417;BME280;45222;52.458;20.914;2024-01-16T05:23:07;99118.85;;;-6.26;71.42
59417;BME280;45222;52.458;20.914;2024-01-16T05:26:55;99130.09;;;-6.32;71.44
59417;BME280;45222;52.458;20.914;2024-01-16T05:30:45;99134.77;;;-6.37;71.62
59417;BME280;45222;52.458;20.914;2024-01-16T05:34:35;99141.86;;;-6.37;71.78
59417;BME280;45222;52.458;20.914;2024-01-16T05:38:23;99154.66;;;-6.33;72.14
59417;BME280;45222;52.458;20.914;2024-01-16T05:42:11;99161.58;;;-6.25;72.75
59417;BME280;45222;52.458;20.914;2024-01-16T05:45:59;99164.35;;;-6.23;72.49
59417;BME280;45222;52.458;20.914;2024-01-16T05:49:48;99163.66;;;-6.22;72.55
59417;BME280;45222;52.458;20.914;2024-01-16T05:53:36;99161.23;;;-6.24;72.53
59417;BME280;45222;52.458;20.914;2024-01-16T05:57:25;99163.66;;;-6.27;72.19
59417;BME280;45222;52.458;20.914;2024-01-16T06:01:13;99172.48;;;-6.32;72.40
59417;BME280;45222;52.458;20.914;2024-01-16T06:05:02;99183.57;;;-6.36;72.27
59417;BME280;45222;52.458;20.914;2024-01-16T06:08:50;99191.15;;;-6.34;72.57
59417;BME280;45222;52.458;20.914;2024-01-16T06:12:39;99194.63;;;-6.32;72.47
59417;BME280;45222;52.458;20.914;2024-01-16T06:16:27;99206.22;;;-6.30;72.56
59417;BME280;45222;52.458;20.914;2024-01-16T06:20:16;99217.64;;;-6.30;72.40
59417;BME280;45222;52.458;20.914;2024-01-16T06:24:04;99220.76;;;-6.30;72.17
59417;BME280;45222;52.458;20.914;2024-01-16T06:27:53;99229.58;;;-6.34;72.14
59417;BME280;45222;52.458;20.914;2024-01-16T06:31:41;99239.77;;;-6.37;72.29
59417;BME280;45222;52.458;20.914;2024-01-16T06:35:29;99247.38;;;-6.42;72.23
59417;BME280;45222;52.458;20.914;2024-01-16T06:39:17;99253.44;;;-6.45;71.81
59417;BME280;45222;52.458;20.914;2024-01-16T06:43:06;99261.38;;;-6.43;72.26
59417;BME280;45222;52.458;20.914;2024-01-16T06:46:54;99265.88;;;-6.41;72.38
59417;BME280;45222;52.458;20.914;2024-01-16T06:50:42;99276.10;;;-6.35;72.46
59417;BME280;45222;52.458;20.914;2024-01-16T06:54:32;99281.12;;;-6.35;71.86
59417;BME280;45222;52.458;20.914;2024-01-16T06:58:20;99287.34;;;-6.40;71.91
59417;BME280;45222;52.458;20.914;2024-01-16T07:02:08;99293.20;;;-6.47;71.59
59417;BME280;45222;52.458;20.914;2024-01-16T07:05:57;99292.15;;;-6.54;71.65
59417;BME280;45222;52.458;20.914;2024-01-16T07:09:52;99304.58;;;-6.60;71.80
59417;BME280;45222;52.458;20.914;2024-01-16T07:13:40;99317.19;;;-6.65;71.47
59417;BME280;45222;52.458;20.914;2024-01-16T07:17:32;99324.24;;;-6.70;71.76
59417;BME280;45222;52.458;20.914;2024-01-16T07:21:23;99332.19;;;-6.75;71.80
59417;BME280;45222;52.458;20.914;2024-01-16T07:25:11;99345.13;;;-6.78;72.06
59417;BME280;45222;52.458;20.914;2024-01-16T07:28:59;99355.34;;;-6.75;72.06
59417;BME280;45222;52.458;20.914;2024-01-16T07:32:47;99362.27;;;-6.71;72.16
59417;BME280;45222;52.458;20.914;2024-01-16T07:36:37;99369.41;;;-6.65;72.42
59417;BME280;45222;52.458;20.914;2024-01-16T07:40:26;99376.88;;;-6.56;72.62
59417;BME280;45222;52.458;20.914;2024-01-16T07:44:14;99381.41;;;-6.48;73.19
59417;BME280;45222;52.458;20.914;2024-01-16T07:48:03;99388.04;;;-6.39;73.13
59417;BME280;45222;52.458;20.914;2024-01-16T07:51:51;99395.35;;;-6.26;72.90
59417;BME280;45222;52.458;20.914;2024-01-16T07:55:39;99393.48;;;-6.17;73.08
59417;BME280;45222;52.458;20.914;2024-01-16T07:59:27;99400.94;;;-6.10;73.18
59417;BME280;45222;52.458;20.914;2024-01-16T08:03:15;99402.52;;;-6.00;73.27
59417;BME280;45222;52.458;20.914;2024-01-16T08:07:03;99401.83;;;-5.96;72.77
59417;BME280;45222;52.458;20.914;2024-01-16T08:10:51;99412.23;;;-5.92;72.59
59417;BME280;45222;52.458;20.914;2024-01-16T08:14:39;99424.34;;;-5.89;72.17
59417;BME280;45222;52.458;20.914;2024-01-16T08:18:27;99422.45;;;-5.89;71.90
59417;BME280;45222;52.458;20.914;2024-01-16T08:22:15;99430.41;;;-5.87;72.13
59417;BME280;45222;52.458;20.914;2024-01-16T08:26:03;99434.75;;;-5.85;71.69
59417;BME280;45222;52.458;20.914;2024-01-16T08:29:52;99436.84;;;-5.82;71.44
59417;BME280;45222;52.458;20.914;2024-01-16T08:33:40;99440.48;;;-5.77;71.12
59417;BME280;45222;52.458;20.914;2024-01-16T08:37:28;99446.56;;;-5.74;70.93
59417;BME280;45222;52.458;20.914;2024-01-16T08:41:16;99448.29;;;-5.70;70.79
59417;BME280;45222;52.458;20.914;2024-01-16T08:45:05;99465.29;;;-5.61;70.37
59417;BME280;45222;52.458;20.914;2024-01-16T08:48:53;99475.36;;;-5.50;70.61
59417;BME280;45222;52.458;20.914;2024-01-16T08:52:42;99478.50;;;-5.41;70.31
59417;BME280;45222;52.458;20.914;2024-01-16T08:56:30;99484.23;;;-5.33;69.79
59417;BME280;45222;52.458;20.914;2024-01-16T09:00:19;99492.57;;;-5.26;69.79
59417;BME280;45222;52.458;20.914;2024-01-16T09:04:05;99494.83;;;-5.20;69.73
59417;BME280;45222;52.458;20.914;2024-01-16T09:07:53;99497.09;;;-5.16;68.98
59417;BME280;45222;52.458;20.914;2024-01-16T09:11:41;99497.96;;;-5.14;68.40
59417;BME280;45222;52.458;20.914;2024-01-16T09:15:29;99500.73;;;-5.09;67.64
59417;BME280;45222;52.458;20.914;2024-01-16T09:19:17;99503.85;;;-5.03;68.11
59417;BME280;45222;52.458;20.914;2024-01-16T09:23:05;99507.85;;;-4.95;68.11
59417;BME280;45222;52.458;20.914;2024-01-16T09:26:53;99512.72;;;-4.90;67.51
59417;BME280;45222;52.458;20.914;2024-01-16T09:30:41;99505.26;;;-4.81;67.87
59417;BME280;45222;52.458;20.914;2024-01-16T09:34:29;99502.30;;;-4.64;67.11
59417;BME280;45222;52.458;20.914;2024-01-16T09:38:17;99503.34;;;-4.57;66.90
59417;BME280;45222;52.458;20.914;2024-01-16T09:42:06;99507.48;;;-4.48;65.99
59417;BME280;45222;52.458;20.914;2024-01-16T09:45:55;99513.38;;;-4.39;65.29
59417;BME280;45222;52.458;20.914;2024-01-16T09:49:44;99517.01;;;-4.33;65.22
59417;BME280;45222;52.458;20.914;2024-01-16T09:53:34;99520.30;;;-4.25;64.60
59417;BME280;45222;52.458;20.914;2024-01-16T09:57:25;99523.40;;;-4.18;64.77
59417;BME280;45222;52.458;20.914;2024-01-16T10:01:14;99532.77;;;-4.12;64.01
59417;BME280;45222;52.458;20.914;2024-01-16T10:05:04;99533.27;;;-4.09;63.89
59417;BME280;45222;52.458;20.914;2024-01-16T10:08:52;99546.48;;;-4.05;63.42
59417;BME280;45222;52.458;20.914;2024-01-16T10:12:40;99555.33;;;-4.03;63.56
59417;BME280;45222;52.458;20.914;2024-01-16T10:17:01;99559.66;;;-3.97;63.54
59417;BME280;45222;52.458;20.914;2024-01-16T10:20:52;99574.94;;;-3.96;63.27
59417;BME280;45222;52.458;20.914;2024-01-16T10:24:42;99572.14;;;-3.89;63.33
59417;BME280;45222;52.458;20.914;2024-01-16T10:28:30;99581.69;;;-3.86;63.02
59417;BME280;45222;52.458;20.914;2024-01-16T10:32:28;99582.91;;;-3.90;62.82
59417;BME280;45222;52.458;20.914;2024-01-16T10:36:17;99578.04;;;-3.89;62.55
59417;BME280;45222;52.458;20.914;2024-01-16T10:40:09;99583.95;;;-3.90;63.29
59417;BME280;45222;52.458;20.914;2024-01-16T10:44:05;99591.23;;;-3.90;63.56
59417;BME280;45222;52.458;20.914;2024-01-16T10:48:02;99590.89;;;-3.88;63.51
59417;BME280;45222;52.458;20.914;2024-01-16T10:51:51;99590.70;;;-3.81;63.33
59417;BME280;45222;52.458;20.914;2024-01-16T10:55:46;99597.31;;;-3.83;62.58
59417;BME280;45222;52.458;20.914;2024-01-16T10:59:42;99592.63;;;-3.86;63.13
59417;BME280;45222;52.458;20.914;2024-01-16T11:03:40;99594.02;;;-3.87;62.96
59417;BME280;45222;52.458;20.914;2024-01-16T11:07:29;99595.41;;;-3.87;62.57
59417;BME280;45222;52.458;20.914;2024-01-16T11:11:18;99599.05;;;-3.83;63.19
59417;BME280;45222;52.458;20.914;2024-01-16T11:15:10;99597.64;;;-3.73;63.06
59417;BME280;45222;52.458;20.914;2024-01-16T11:18:59;99600.05;;;-3.65;62.56
59417;BME280;45222;52.458;20.914;2024-01-16T11:22:47;99610.45;;;-3.60;62.67
59417;BME280;45222;52.458;20.914;2024-01-16T11:26:39;99617.92;;;-3.58;62.27
59417;BME280;45222;52.458;20.914;2024-01-16T11:30:32;99620.00;;;-3.58;61.69
59417;BME280;45222;52.458;20.914;2024-01-16T11:34:55;99622.63;;;-3.62;60.82
59417;BME280;45222;52.458;20.914;2024-01-16T11:38:43;99615.66;;;-3.56;61.62
59417;BME280;45222;52.458;20.914;2024-01-16T11:42:31;99613.91;;;-3.53;61.55
59417;BME280;45222;52.458;20.914;2024-01-16T11:46:20;99624.34;;;-3.56;61.17
59417;BME280;45222;52.458;20.914;2024-01-16T11:50:12;99626.77;;;-3.56;61.84
59417;BME280;45222;52.458;20.914;2024-01-16T11:54:15;99631.81;;;-3.51;61.17
59417;BME280;45222;52.458;20.914;2024-01-16T11:58:21;99644.81;;;-3.43;60.93
59417;BME280;45222;52.458;20.914;2024-01-16T12:02:17;99646.72;;;-3.39;61.12
59417;BME280;45222;52.458;20.914;2024-01-16T12:06:07;99646.52;;;-3.32;61.12
59417;BME280;45222;52.458;20.914;2024-01-16T12:10:00;99640.72;;;-3.15;61.16
59417;BME280;45222;52.458;20.914;2024-01-16T12:14:02;99648.32;;;-3.04;59.83
59417;BME280;45222;52.458;20.914;2024-01-16T12:17:58;99651.62;;;-3.04;59.22
59417;BME280;45222;52.458;20.914;2024-01-16T12:21:46;99651.11;;;-3.09;60.12
59417;BME280;45222;52.458;20.914;2024-01-16T12:25:36;99659.48;;;-3.12;60.18
59417;BME280;45222;52.458;20.914;2024-01-16T12:29:24;99659.67;;;-3.16;60.54
59417;BME280;45222;52.458;20.914;2024-01-16T12:33:13;99666.48;;;-3.21;60.57
59417;BME280;45222;52.458;20.914;2024-01-16T12:37:07;99670.69;;;-3.32;60.62
59417;BME280;45222;52.458;20.914;2024-01-16T12:40:55;99672.65;;;-3.50;59.99
59417;BME280;45222;52.458;20.914;2024-01-16T12:44:43;99673.02;;;-3.58;61.13
59417;BME280;45222;52.458;20.914;2024-01-16T12:48:33;99679.10;;;-3.61;61.41
59417;BME280;45222;52.458;20.914;2024-01-16T12:52:21;99682.05;;;-3.58;61.49
59417;BME280;45222;52.458;20.914;2024-01-16T12:56:12;99686.73;;;-3.53;61.41
59417;BME280;45222;52.458;20.914;2024-01-16T13:00:00;99694.22;;;-3.56;61.54
59417;BME280;45222;52.458;20.914;2024-01-16T13:03:52;99693.88;;;-3.65;62.02
59417;BME280;45222;52.458;20.914;2024-01-16T13:07:40;99694.95;;;-3.78;62.38
59417;BME280;45222;52.458;20.914;2024-01-16T13:11:28;99702.60;;;-3.89;62.34
59417;BME280;45222;52.458;20.914;2024-01-16T13:15:17;99708.33;;;-3.98;62.59
59417;BME280;45222;52.458;20.914;2024-01-16T13:19:05;99715.62;;;-4.04;62.89
59417;BME280;45222;52.458;20.914;2024-01-16T13:22:56;99719.10;;;-4.09;62.98
59417;BME280;45222;52.458;20.914;2024-01-16T13:26:44;99722.23;;;-4.11;63.21
59417;BME280;45222;52.458;20.914;2024-01-16T13:30:32;99726.39;;;-4.15;63.28
59417;BME280;45222;52.458;20.914;2024-01-16T13:34:20;99735.92;;;-4.20;63.41
59417;BME280;45222;52.458;20.914;2024-01-16T13:38:09;99738.17;;;-4.31;63.64
59417;BME280;45222;52.458;20.914;2024-01-16T13:41:58;99741.96;;;-4.38;64.13
59417;BME280;45222;52.458;20.914;2024-01-16T13:45:46;99745.62;;;-4.37;64.18
59417;BME280;45222;52.458;20.914;2024-01-16T13:49:36;99750.14;;;-4.27;64.22
59417;BME280;45222;52.458;20.914;2024-01-16T13:53:24;99763.55;;;-4.11;64.14
59417;BME280;45222;52.458;20.914;2024-01-16T13:57:12;99770.50;;;-4.01;64.10
59417;BME280;45222;52.458;20.914;2024-01-16T14:01:00;99774.16;;;-3.96;63.85
59417;BME280;45222;52.458;20.914;2024-01-16T14:04:48;99781.09;;;-4.05;63.85
59417;BME280;45222;52.458;20.914;2024-01-16T14:08:36;99783.15;;;-4.20;63.98
59417;BME280;45222;52.458;20.914;2024-01-16T14:12:24;99783.14;;;-4.26;64.37
59417;BME280;45222;52.458;20.914;2024-01-16T14:16:12;99784.00;;;-4.32;64.61
59417;BME280;45222;52.458;20.914;2024-01-16T14:20:00;99793.70;;;-4.35;64.63
59417;BME280;45222;52.458;20.914;2024-01-16T14:23:49;99797.85;;;-4.43;64.65
59417;BME280;45222;52.458;20.914;2024-01-16T14:27:38;99800.25;;;-4.52;64.66
59417;BME280;45222;52.458;20.914;2024-01-16T14:31:26;99805.38;;;-4.71;64.88
59417;BME280;45222;52.458;20.914;2024-01-16T14:35:15;99809.45;;;-4.89;65.22
59417;BME280;45222;52.458;20.914;2024-01-16T14:39:04;99813.19;;;-5.02;65.46
59417;BME280;45222;52.458;20.914;2024-01-16T14:42:53;99821.46;;;-5.13;65.75
59417;BME280;45222;52.458;20.914;2024-01-16T14:46:43;99823.44;;;-5.27;65.98
59417;BME280;45222;52.458;20.914;2024-01-16T14:50:31;99828.71;;;-5.42;66.19
59417;BME280;45222;52.458;20.914;2024-01-16T14:54:19;99833.80;;;-5.54;66.22
59417;BME280;45222;52.458;20.914;2024-01-16T14:58:08;99846.70;;;-5.66;66.60
59417;BME280;45222;52.458;20.914;2024-01-16T15:01:56;99852.83;;;-5.77;66.66
59417;BME280;45222;52.458;20.914;2024-01-16T15:05:47;99860.17;;;-5.87;66.87
59417;BME280;45222;52.458;20.914;2024-01-16T15:09:35;99869.60;;;-5.97;66.95
59417;BME280;45222;52.458;20.914;2024-01-16T15:13:24;99872.66;;;-6.07;67.07
59417;BME280;45222;52.458;20.914;2024-01-16T15:17:12;99872.73;;;-6.14;67.50
59417;BME280;45222;52.458;20.914;2024-01-16T15:21:00;99884.77;;;-6.22;67.60
59417;BME280;45222;52.458;20.914;2024-01-16T15:24:48;99885.54;;;-6.31;67.74
59417;BME280;45222;52.458;20.914;2024-01-16T15:28:36;99890.35;;;-6.32;67.85
59417;BME280;45222;52.458;20.914;2024-01-16T15:32:24;99891.88;;;-6.35;68.06
59417;BME280;45222;52.458;20.914;2024-01-16T15:36:12;99897.11;;;-6.33;68.40
59417;BME280;45222;52.458;20.914;2024-01-16T15:40:00;99893.86;;;-6.29;68.77
59417;BME280;45222;52.458;20.914;2024-01-16T15:43:48;99898.23;;;-6.27;68.91
59417;BME280;45222;52.458;20.914;2024-01-16T15:47:38;99899.12;;;-6.24;69.32
59417;BME280;45222;52.458;20.914;2024-01-16T15:51:26;99901.13;;;-6.15;69.76
59417;BME280;45222;52.458;20.914;2024-01-16T15:55:14;99905.69;;;-6.09;69.69
59417;BME280;45222;52.458;20.914;2024-01-16T15:59:05;99907.61;;;-6.07;69.72
59417;BME280;45222;52.458;20.914;2024-01-16T16:02:53;99910.02;;;-6.10;69.57
59417;BME280;45222;52.458;20.914;2024-01-16T16:06:41;99915.14;;;-6.15;69.49
59417;BME280;45222;52.458;20.914;2024-01-16T16:10:29;99912.95;;;-6.26;69.50
59417;BME280;45222;52.458;20.914;2024-01-16T16:14:20;99918.83;;;-6.38;69.72
59417;BME280;45222;52.458;20.914;2024-01-16T16:18:08;99923.46;;;-6.55;69.64
59417;BME280;45222;52.458;20.914;2024-01-16T16:21:56;99931.54;;;-6.71;69.48
59417;BME280;45222;52.458;20.914;2024-01-16T16:25:48;99939.27;;;-6.86;69.79
59417;BME280;45222;52.458;20.914;2024-01-16T16:29:36;99948.71;;;-7.01;70.04
59417;BME280;45222;52.458;20.914;2024-01-16T16:33:24;99956.61;;;-7.15;70.08
59417;BME280;45222;52.458;20.914;2024-01-16T16:37:12;99964.78;;;-7.23;70.20
59417;BME280;45222;52.458;20.914;2024-01-16T16:41:00;99963.74;;;-7.33;70.34
59417;BME280;45222;52.458;20.914;2024-01-16T16:44:48;99959.92;;;-7.44;70.78
59417;BME280;45222;52.458;20.914;2024-01-16T16:48:36;99967.81;;;-7.48;71.16
59417;BME280;45222;52.458;20.914;2024-01-16T16:52:27;99966.96;;;-7.46;71.38
59417;BME280;45222;52.458;20.914;2024-01-16T16:56:15;99970.50;;;-7.42;71.62
59417;BME280;45222;52.458;20.914;2024-01-16T17:00:02;99969.90;;;-7.37;71.37
59417;BME280;45222;52.458;20.914;2024-01-16T17:03:50;99971.95;;;-7.28;71.77
59417;BME280;45222;52.458;20.914;2024-01-16T17:07:39;99974.05;;;-7.17;71.76
59417;BME280;45222;52.458;20.914;2024-01-16T17:11:27;99976.80;;;-7.06;71.81
59417;BME280;45222;52.458;20.914;2024-01-16T17:15:15;99979.80;;;-7.03;71.66
59417;BME280;45222;52.458;20.914;2024-01-16T17:19:03;99988.56;;;-7.06;71.66
59417;BME280;45222;52.458;20.914;2024-01-16T17:22:52;99991.67;;;-7.16;71.85
59417;BME280;45222;52.458;20.914;2024-01-16T17:26:40;99998.98;;;-7.24;71.67
59417;BME280;45222;52.458;20.914;2024-01-16T17:30:31;100001.13;;;-7.39;71.58
59417;BME280;45222;52.458;20.914;2024-01-16T17:34:19;100002.47;;;-7.51;72.07
59417;BME280;45222;52.458;20.914;2024-01-16T17:38:06;100010.33;;;-7.64;71.56
59417;BME280;45222;52.458;20.914;2024-01-16T17:41:56;100008.60;;;-7.82;72.11
59417;BME280;45222;52.458;20.914;2024-01-16T17:45:44;100015.08;;;-7.94;72.09
59417;BME280;45222;52.458;20.914;2024-01-16T17:49:33;100013.95;;;-8.07;72.03
59417;BME280;45222;52.458;20.914;2024-01-16T17:53:21;100013.04;;;-8.09;72.22
59417;BME280;45222;52.458;20.914;2024-01-16T17:57:09;100014.89;;;-8.04;72.78
59417;BME280;45222;52.458;20.914;2024-01-16T18:00:58;100018.36;;;-7.95;72.87
59417;BME280;45222;52.458;20.914;2024-01-16T18:04:49;100018.73;;;-7.77;73.31
59417;BME280;45222;52.458;20.914;2024-01-16T18:08:37;100029.37;;;-7.62;73.02
59417;BME280;45222;52.458;20.914;2024-01-16T18:12:26;100027.75;;;-7.47;73.35
59417;BME280;45222;52.458;20.914;2024-01-16T18:16:16;100029.55;;;-7.33;73.46
59417;BME280;45222;52.458;20.914;2024-01-16T18:20:12;100038.15;;;-7.26;73.11
59417;BME280;45222;52.458;20.914;2024-01-16T18:24:04;100042.89;;;-7.23;72.84
59417;BME280;45222;52.458;20.914;2024-01-16T18:27:53;100040.40;;;-7.26;72.89
59417;BME280;45222;52.458;20.914;2024-01-16T18:31:43;100049.17;;;-7.28;72.86
59417;BME280;45222;52.458;20.914;2024-01-16T18:35:35;100055.88;;;-7.31;73.01
59417;BME280;45222;52.458;20.914;2024-01-16T18:39:25;100057.45;;;-7.39;72.63
59417;BME280;45222;52.458;20.914;2024-01-16T18:43:15;100060.42;;;-7.54;72.60
59417;BME280;45222;52.458;20.914;2024-01-16T18:47:05;100062.05;;;-7.68;72.73
59417;BME280;45222;52.458;20.914;2024-01-16T18:50:55;100073.89;;;-7.80;72.56
59417;BME280;45222;52.458;20.914;2024-01-16T18:54:43;100072.75;;;-7.94;72.54
59417;BME280;45222;52.458;20.914;2024-01-16T18:58:33;100076.89;;;-8.01;73.06
59417;BME280;45222;52.458;20.914;2024-01-16T19:02:21;100091.83;;;-8.05;72.70
59417;BME280;45222;52.458;20.914;2024-01-16T19:06:11;100101.44;;;-8.15;72.58
59417;BME280;45222;52.458;20.914;2024-01-16T19:10:00;100097.42;;;-8.17;72.82
59417;BME280;45222;52.458;20.914;2024-01-16T19:13:49;100096.36;;;-8.18;72.96
59417;BME280;45222;52.458;20.914;2024-01-16T19:17:37;100100.23;;;-8.15;73.22
59417;BME280;45222;52.458;20.914;2024-01-16T19:21:24;100109.46;;;-8.11;73.04
59417;BME280;45222;52.458;20.914;2024-01-16T19:25:13;100117.04;;;-8.12;73.09
59417;BME280;45222;52.458;20.914;2024-01-16T19:29:04;100127.54;;;-8.13;73.25
59417;BME280;45222;52.458;20.914;2024-01-16T19:32:54;100138.44;;;-8.11;73.06
59417;BME280;45222;52.458;20.914;2024-01-16T19:36:43;100139.52;;;-8.10;73.29
59417;BME280;45222;52.458;20.914;2024-01-16T19:40:34;100137.75;;;-8.12;73.17
59417;BME280;45222;52.458;20.914;2024-01-16T19:44:23;100137.63;;;-8.17;73.28
59417;BME280;45222;52.458;20.914;2024-01-16T19:48:11;100132.94;;;-8.25;73.04
59417;BME280;45222;52.458;20.914;2024-01-16T19:51:59;100128.80;;;-8.40;72.80
59417;BME280;45222;52.458;20.914;2024-01-16T19:55:47;100125.45;;;-8.58;72.69
59417;BME280;45222;52.458;20.914;2024-01-16T19:59:39;100125.54;;;-8.75;72.77
59417;BME280;45222;52.458;20.914;2024-01-16T20:03:27;100128.95;;;-8.90;73.21
59417;BME280;45222;52.458;20.914;2024-01-16T20:07:17;100126.83;;;-8.99;73.40
59417;BME280;45222;52.458;20.914;2024-01-16T20:11:05;100134.14;;;-9.03;73.23
59417;BME280;45222;52.458;20.914;2024-01-16T20:14:54;100143.71;;;-9.06;73.50
59417;BME280;45222;52.458;20.914;2024-01-16T20:18:45;100150.30;;;-9.04;73.61
59417;BME280;45222;52.458;20.914;2024-01-16T20:22:34;100161.11;;;-8.99;73.69
59417;BME280;45222;52.458;20.914;2024-01-16T20:26:23;100163.84;;;-8.94;73.75
59417;BME280;45222;52.458;20.914;2024-01-16T20:30:11;100161.36;;;-8.77;74.16
59417;BME280;45222;52.458;20.914;2024-01-16T20:34:00;100170.59;;;-8.66;74.21
59417;BME280;45222;52.458;20.914;2024-01-16T20:37:48;100177.27;;;-8.54;73.84
59417;BME280;45222;52.458;20.914;2024-01-16T20:41:36;100180.13;;;-8.42;74.05
59417;BME280;45222;52.458;20.914;2024-01-16T20:45:25;100182.70;;;-8.29;73.91
59417;BME280;45222;52.458;20.914;2024-01-16T20:49:13;100184.69;;;-8.26;73.57
59417;BME280;45222;52.458;20.914;2024-01-16T20:53:04;100184.34;;;-8.19;73.34
59417;BME280;45222;52.458;20.914;2024-01-16T20:56:53;100179.99;;;-8.20;73.23
59417;BME280;45222;52.458;20.914;2024-01-16T21:00:41;100163.20;;;-8.23;73.46
59417;BME280;45222;52.458;20.914;2024-01-16T21:04:32;100158.33;;;-8.31;73.13
59417;BME280;45222;52.458;20.914;2024-01-16T21:08:20;100157.10;;;-8.47;73.05
59417;BME280;45222;52.458;20.914;2024-01-16T21:12:09;100169.52;;;-8.61;72.86
59417;BME280;45222;52.458;20.914;2024-01-16T21:15:59;100164.86;;;-8.75;73.07
59417;BME280;45222;52.458;20.914;2024-01-16T21:19:48;100164.84;;;-8.82;73.31
59417;BME280;45222;52.458;20.914;2024-01-16T21:23:37;100168.69;;;-8.86;73.64
59417;BME280;45222;52.458;20.914;2024-01-16T21:27:25;100170.23;;;-8.93;73.54
59417;BME280;45222;52.458;20.914;2024-01-16T21:31:13;100165.95;;;-8.92;74.13
59417;BME280;45222;52.458;20.914;2024-01-16T21:35:01;100159.19;;;-8.81;74.28
59417;BME280;45222;52.458;20.914;2024-01-16T21:38:54;100157.78;;;-8.68;74.09
59417;BME280;45222;52.458;20.914;2024-01-16T21:42:40;100163.17;;;-8.59;74.16
59417;BME280;45222;52.458;20.914;2024-01-16T21:46:31;100169.17;;;-8.54;73.64
59417;BME280;45222;52.458;20.914;2024-01-16T21:50:20;100171.45;;;-8.53;73.76
59417;BME280;45222;52.458;20.914;2024-01-16T21:54:07;100167.09;;;-8.47;73.99
59417;BME280;45222;52.458;20.914;2024-01-16T21:57:55;100165.67;;;-8.41;73.68